Time;durP1;ratioP1;P1;durP2;ratioP2;P2;SDS_P1;SDS_P2;PMS_P1;PMS_P2;Temp;Humidity;BMP_temperature;BMP_pressure;BME280_temperature;BME280_humidity;BME280_pressure;Samples;Min_cycle;Max_cycle;Signal;HPM_P1;HPM_P2
2023/05/23 00:00:04;;;;;;;21.65;19.95;;;;;;;;;;4995505;28;20216;-85
2023/05/23 00:02:37;;;;;;;22.73;20.70;;;;;;;;;;4998185;28;20216;-85
2023/05/23 00:05:03;;;;;;;21.10;19.50;;;;;;;;;;4972682;28;20346;-86
2023/05/23 00:07:31;;;;;;;21.77;19.98;;;;;;;;;;4998238;28;20746;-86
2023/05/23 00:09:56;;;;;;;21.25;19.45;;;;;;;;;;4984089;28;20255;-86
2023/05/23 00:12:24;;;;;;;21.08;19.30;;;;;;;;;;4997122;28;20231;-86
2023/05/23 00:14:52;;;;;;;21.60;19.88;;;;;;;;;;5004129;28;20200;-85
2023/05/23 00:17:18;;;;;;;21.40;19.70;;;;;;;;;;4980662;28;20232;-84
2023/05/23 00:19:46;;;;;;;21.98;20.17;;;;;;;;;;4983448;28;20708;-85
2023/05/23 00:22:12;;;;;;;22.45;20.60;;;;;;;;;;5000573;28;20223;-89
2023/05/23 00:24:39;;;;;;;22.85;20.95;;;;;;;;;;5002940;28;20257;-87
2023/05/23 00:27:07;;;;;;;22.05;20.35;;;;;;;;;;4976745;28;20213;-86
2023/05/23 00:29:35;;;;;;;25.17;23.15;;;;;;;;;;4994513;28;20219;-85
2023/05/23 00:32:01;;;;;;;36.75;33.20;;;;;;;;;;4994500;28;20299;-87
2023/05/23 00:34:26;;;;;;;37.28;33.53;;;;;;;;;;4983513;28;20228;-87
2023/05/23 00:36:53;;;;;;;46.20;41.72;;;;;;;;;;5009268;28;20224;-85
2023/05/23 00:39:21;;;;;;;48.50;44.03;;;;;;;;;;4984392;28;20216;-85
2023/05/23 00:41:47;;;;;;;51.63;46.55;;;;;;;;;;5008915;28;20228;-86
2023/05/23 00:44:16;;;;;;;54.45;49.05;;;;;;;;;;5013334;28;20220;-86
2023/05/23 00:46:42;;;;;;;54.20;48.65;;;;;;;;;;4994495;28;20224;-88
2023/05/23 00:49:25;;;;;;;56.63;50.78;;;;;;;;;;5006380;28;20303;-85
2023/05/23 00:51:51;;;;;;;54.42;49.03;;;;;;;;;;4973316;28;20708;-87
2023/05/23 00:54:27;;;;;;;55.35;49.60;;;;;;;;;;4981205;28;20220;-87
2023/05/23 00:56:55;;;;;;;55.88;50.45;;;;;;;;;;4977320;28;20599;-88
2023/05/23 00:59:23;;;;;;;52.42;47.50;;;;;;;;;;4957320;28;20257;-87
2023/05/23 01:01:49;;;;;;;53.60;48.58;;;;;;;;;;4992828;28;20216;-86
2023/05/23 01:04:15;;;;;;;51.78;46.83;;;;;;;;;;4993638;28;20228;-87
2023/05/23 01:06:45;;;;;;;52.67;47.83;;;;;;;;;;4989830;28;20307;-86
2023/05/23 01:09:14;;;;;;;52.17;47.30;;;;;;;;;;4975773;28;20304;-85
2023/05/23 01:11:46;;;;;;;54.85;49.50;;;;;;;;;;4981828;28;20228;-85
2023/05/23 01:14:16;;;;;;;55.75;50.17;;;;;;;;;;4993809;28;20665;-87
2023/05/23 01:16:50;;;;;;;55.17;50.08;;;;;;;;;;4997801;28;20243;-86
2023/05/23 01:19:30;;;;;;;56.17;50.47;;;;;;;;;;4978180;28;20221;-87
2023/05/23 01:21:55;;;;;;;54.83;49.67;;;;;;;;;;5017666;28;20266;-86
2023/05/23 01:24:35;;;;;;;56.35;50.58;;;;;;;;;;4978129;28;21144;-86
2023/05/23 01:27:12;;;;;;;55.42;50.13;;;;;;;;;;4996239;28;20315;-86
2023/05/23 01:29:42;;;;;;;58.22;52.63;;;;;;;;;;5009822;28;20216;-86
2023/05/23 01:32:10;;;;;;;58.20;51.95;;;;;;;;;;4981123;28;20590;-85
2023/05/23 01:34:55;;;;;;;58.35;52.65;;;;;;;;;;4983719;28;20697;-88
2023/05/23 01:37:23;;;;;;;58.70;53.08;;;;;;;;;;4975070;28;20759;-85
2023/05/23 01:39:49;;;;;;;58.22;52.00;;;;;;;;;;5001629;28;20256;-87
2023/05/23 01:42:15;;;;;;;57.50;51.53;;;;;;;;;;4965913;28;20215;-86
2023/05/23 01:44:44;;;;;;;56.78;50.03;;;;;;;;;;4984245;28;20232;-87
2023/05/23 01:47:12;;;;;;;55.03;49.28;;;;;;;;;;4968057;28;20240;-86
2023/05/23 01:49:40;;;;;;;57.92;49.55;;;;;;;;;;4998768;28;20258;-84
2023/05/23 01:52:09;;;;;;;54.67;48.67;;;;;;;;;;4992644;28;20654;-86
2023/05/23 01:54:36;;;;;;;55.28;49.22;;;;;;;;;;4983190;28;20307;-85
2023/05/23 01:57:02;;;;;;;55.67;48.35;;;;;;;;;;5003904;28;20216;-86
2023/05/23 01:59:29;;;;;;;52.70;47.00;;;;;;;;;;4975921;28;20243;-85
2023/05/23 02:01:57;;;;;;;52.42;46.75;;;;;;;;;;4980538;28;20589;-87
2023/05/23 02:04:23;;;;;;;54.25;48.10;;;;;;;;;;4978226;28;20223;-85
2023/05/23 02:06:51;;;;;;;52.85;47.15;;;;;;;;;;5000234;28;20227;-84
2023/05/23 02:09:16;;;;;;;50.78;45.58;;;;;;;;;;4997496;28;20223;-84
2023/05/23 02:11:44;;;;;;;50.92;45.40;;;;;;;;;;4994911;28;20216;-87
2023/05/23 02:14:10;;;;;;;48.80;43.75;;;;;;;;;;4998324;28;20226;-86
2023/05/23 02:16:36;;;;;;;50.30;44.58;;;;;;;;;;4992408;28;20247;-87
2023/05/23 02:19:02;;;;;;;48.38;43.30;;;;;;;;;;4990218;28;20224;-87
2023/05/23 02:21:28;;;;;;;46.03;41.47;;;;;;;;;;4975503;28;20224;-84
2023/05/23 02:23:53;;;;;;;45.75;40.88;;;;;;;;;;4975091;28;20500;-84
2023/05/23 02:26:20;;;;;;;43.97;39.78;;;;;;;;;;4977929;28;20216;-86
2023/05/23 02:28:48;;;;;;;43.00;38.67;;;;;;;;;;4992330;28;20279;-86
2023/05/23 02:31:17;;;;;;;42.95;38.50;;;;;;;;;;4973889;28;20234;-83
2023/05/23 02:33:43;;;;;;;38.88;34.92;;;;;;;;;;4999173;28;20696;-87
2023/05/23 02:36:08;;;;;;;35.55;31.95;;;;;;;;;;4979245;28;20229;-86
2023/05/23 02:38:34;;;;;;;34.33;31.00;;;;;;;;;;4981012;28;20216;-84
2023/05/23 02:40:59;;;;;;;30.63;27.60;;;;;;;;;;5015987;28;20247;-84
2023/05/23 02:43:25;;;;;;;31.73;28.33;;;;;;;;;;4980214;28;20220;-87
2023/05/23 02:45:53;;;;;;;30.83;27.73;;;;;;;;;;4983953;28;20240;-84
2023/05/23 02:48:19;;;;;;;29.58;26.67;;;;;;;;;;4965173;28;20221;-86
2023/05/23 02:50:47;;;;;;;28.85;25.77;;;;;;;;;;4964940;28;20224;-86
2023/05/23 02:53:12;;;;;;;29.25;26.15;;;;;;;;;;4977694;28;20228;-84
2023/05/23 02:55:41;;;;;;;29.48;26.48;;;;;;;;;;4963403;28;20232;-86
2023/05/23 02:58:09;;;;;;;29.67;26.58;;;;;;;;;;4964385;28;20705;-84
2023/05/23 03:00:35;;;;;;;28.48;25.85;;;;;;;;;;4979827;28;20258;-82
2023/05/23 03:03:01;;;;;;;28.95;26.08;;;;;;;;;;4996410;28;20232;-84
2023/05/23 03:05:29;;;;;;;27.52;24.75;;;;;;;;;;4969057;28;20599;-86
2023/05/23 03:07:54;;;;;;;28.17;25.48;;;;;;;;;;4978782;28;20330;-85
2023/05/23 03:10:20;;;;;;;28.15;25.35;;;;;;;;;;4998204;28;20224;-84
2023/05/23 03:12:48;;;;;;;27.73;25.10;;;;;;;;;;4961874;28;22796;-83
2023/05/23 03:15:15;;;;;;;26.42;23.90;;;;;;;;;;4981189;28;20212;-83
2023/05/23 03:17:49;;;;;;;28.05;25.15;;;;;;;;;;4965508;28;20263;-84
2023/05/23 03:20:15;;;;;;;27.60;24.83;;;;;;;;;;4980630;28;20299;-82
2023/05/23 03:22:44;;;;;;;27.40;24.92;;;;;;;;;;4979518;28;20228;-84
2023/05/23 03:25:09;;;;;;;26.73;24.33;;;;;;;;;;4980922;28;20285;-85
2023/05/23 03:27:35;;;;;;;26.17;23.73;;;;;;;;;;4974123;28;20780;-83
2023/05/23 03:30:02;;;;;;;26.13;23.52;;;;;;;;;;4996422;28;20220;-84
2023/05/23 03:32:28;;;;;;;24.35;22.15;;;;;;;;;;5009317;28;20220;-83
2023/05/23 03:35:05;;;;;;;25.58;23.27;;;;;;;;;;4996740;28;20212;-83
2023/05/23 03:37:33;;;;;;;25.45;23.15;;;;;;;;;;4992037;28;20246;-81
2023/05/23 03:40:01;;;;;;;25.85;23.45;;;;;;;;;;4996575;28;20689;-83
2023/05/23 03:42:30;;;;;;;25.20;22.70;;;;;;;;;;4958949;28;20266;-83
2023/05/23 03:44:56;;;;;;;24.20;21.83;;;;;;;;;;4994622;28;20216;-84
2023/05/23 03:47:31;;;;;;;23.30;21.30;;;;;;;;;;4982354;28;20230;-80
2023/05/23 03:50:00;;;;;;;23.90;21.60;;;;;;;;;;4979690;28;20231;-80
2023/05/23 03:52:29;;;;;;;24.42;22.23;;;;;;;;;;4990617;28;20228;-79
2023/05/23 03:55:08;;;;;;;22.70;20.52;;;;;;;;;;4987674;28;20687;-80
2023/05/23 03:57:34;;;;;;;22.67;20.65;;;;;;;;;;4979539;28;20219;-79
2023/05/23 04:00:05;;;;;;;22.20;19.98;;;;;;;;;;4980178;28;20226;-79
2023/05/23 04:02:50;;;;;;;21.88;19.90;;;;;;;;;;4999968;28;20603;-80
2023/05/23 04:05:20;;;;;;;20.63;18.83;;;;;;;;;;4989007;28;20227;-79
2023/05/23 04:07:50;;;;;;;21.30;19.30;;;;;;;;;;4970671;28;20223;-77
2023/05/23 04:10:17;;;;;;;20.90;19.05;;;;;;;;;;4979540;28;20228;-77
2023/05/23 04:12:42;;;;;;;19.70;18.10;;;;;;;;;;4974223;28;20934;-78
2023/05/23 04:15:21;;;;;;;21.13;19.13;;;;;;;;;;4988651;28;20732;-80
2023/05/23 04:18:14;;;;;;;18.92;17.23;;;;;;;;;;4984473;28;20771;-80
2023/05/23 04:20:40;;;;;;;19.27;17.50;;;;;;;;;;4980444;28;20255;-79
2023/05/23 04:23:06;;;;;;;19.67;17.83;;;;;;;;;;4997905;28;20216;-79
2023/05/23 04:25:35;;;;;;;19.25;17.55;;;;;;;;;;4972517;28;20276;-82
2023/05/23 04:28:30;;;;;;;18.83;16.98;;;;;;;;;;5013547;28;20711;-80
2023/05/23 04:30:57;;;;;;;20.27;18.42;;;;;;;;;;5008201;28;20232;-78
2023/05/23 04:33:27;;;;;;;19.52;17.77;;;;;;;;;;4990448;28;20254;-80
2023/05/23 04:35:53;;;;;;;20.48;18.58;;;;;;;;;;5013318;28;20224;-79
2023/05/23 04:38:20;;;;;;;19.30;17.52;;;;;;;;;;4989988;28;20224;-81
2023/05/23 04:40:47;;;;;;;20.80;18.65;;;;;;;;;;5011138;28;20216;-80
2023/05/23 04:43:32;;;;;;;19.70;18.02;;;;;;;;;;5031018;28;20247;-84
2023/05/23 04:46:20;;;;;;;20.02;18.15;;;;;;;;;;4998319;28;20223;-80
2023/05/23 04:49:03;;;;;;;20.50;18.60;;;;;;;;;;5000232;28;20220;-79
2023/05/23 04:51:29;;;;;;;20.85;18.95;;;;;;;;;;4974348;28;20229;-79
2023/05/23 04:54:01;;;;;;;21.23;19.30;;;;;;;;;;4965354;28;20232;-80
2023/05/23 04:56:27;;;;;;;22.60;20.40;;;;;;;;;;4999083;28;20238;-82
2023/05/23 04:58:53;;;;;;;23.10;20.80;;;;;;;;;;5010449;28;20224;-78
2023/05/23 05:01:19;;;;;;;24.13;21.70;;;;;;;;;;4980097;28;20312;-81
2023/05/23 05:03:47;;;;;;;23.80;21.40;;;;;;;;;;4995088;23;20217;-73
2023/05/23 05:06:13;;;;;;;25.05;21.65;;;;;;;;;;4997275;28;20217;-72
2023/05/23 05:08:39;;;;;;;25.23;22.70;;;;;;;;;;4971742;28;20236;-74
2023/05/23 05:11:10;;;;;;;26.17;23.58;;;;;;;;;;4989200;28;20256;-74
2023/05/23 05:13:38;;;;;;;27.15;24.35;;;;;;;;;;4977309;28;20308;-74
2023/05/23 05:16:04;;;;;;;27.88;24.80;;;;;;;;;;4976863;28;20216;-75
2023/05/23 05:18:29;;;;;;;28.77;25.48;;;;;;;;;;5000637;28;20617;-74
2023/05/23 05:20:58;;;;;;;28.63;25.63;;;;;;;;;;4984816;23;20261;-81
2023/05/23 05:23:24;;;;;;;28.25;24.92;;;;;;;;;;4966772;28;20227;-81
2023/05/23 05:25:50;;;;;;;29.70;24.90;;;;;;;;;;4985503;28;20220;-81
2023/05/23 05:28:16;;;;;;;27.08;24.35;;;;;;;;;;4982791;28;20214;-79
2023/05/23 05:30:45;;;;;;;27.83;25.05;;;;;;;;;;4971241;28;20249;-80
2023/05/23 05:33:10;;;;;;;25.48;22.98;;;;;;;;;;4945076;28;20256;-82
2023/05/23 05:35:37;;;;;;;24.50;22.13;;;;;;;;;;4945579;28;20233;-81
2023/05/23 05:38:07;;;;;;;24.48;22.08;;;;;;;;;;4958702;28;20214;-81
2023/05/23 05:40:33;;;;;;;24.20;21.77;;;;;;;;;;4988290;28;20224;-81
2023/05/23 05:43:08;;;;;;;22.38;20.17;;;;;;;;;;4961118;28;20221;-81
2023/05/23 05:45:34;;;;;;;23.20;20.85;;;;;;;;;;4975070;28;20230;-79
2023/05/23 05:48:18;;;;;;;23.40;21.20;;;;;;;;;;4944808;28;20304;-81
2023/05/23 05:50:44;;;;;;;23.00;20.67;;;;;;;;;;4986369;28;20273;-81
2023/05/23 05:53:11;;;;;;;22.33;20.10;;;;;;;;;;4949474;28;20232;-82
2023/05/23 05:55:37;;;;;;;22.42;20.17;;;;;;;;;;4960662;28;20222;-83
2023/05/23 05:58:03;;;;;;;22.40;20.13;;;;;;;;;;4961103;28;20225;-81
2023/05/23 06:00:40;;;;;;;21.40;19.42;;;;;;;;;;4968738;28;20237;-80
2023/05/23 06:03:07;;;;;;;21.80;19.83;;;;;;;;;;4959695;28;20312;-82
2023/05/23 06:05:40;;;;;;;21.08;19.00;;;;;;;;;;4959567;28;20222;-82
2023/05/23 06:08:06;;;;;;;21.42;19.52;;;;;;;;;;4954981;28;20365;-80
2023/05/23 06:10:31;;;;;;;20.60;18.77;;;;;;;;;;4980395;28;20241;-82
2023/05/23 06:13:04;;;;;;;21.55;19.63;;;;;;;;;;4946970;28;20225;-80
2023/05/23 06:15:35;;;;;;;21.98;19.67;;;;;;;;;;4965419;28;20645;-81
2023/05/23 06:18:00;;;;;;;20.02;18.15;;;;;;;;;;4943070;28;20230;-81
2023/05/23 06:20:29;;;;;;;20.45;18.55;;;;;;;;;;4973439;28;20245;-80
2023/05/23 06:22:59;;;;;;;20.80;18.80;;;;;;;;;;4986319;28;20743;-82
2023/05/23 06:25:26;;;;;;;21.17;19.20;;;;;;;;;;4973255;28;20304;-81
2023/05/23 06:27:51;;;;;;;21.17;19.20;;;;;;;;;;4964004;28;20221;-80
2023/05/23 06:30:21;;;;;;;21.58;19.67;;;;;;;;;;4972317;28;20269;-81
2023/05/23 06:32:46;;;;;;;21.73;19.88;;;;;;;;;;4975174;28;20522;-81
2023/05/23 06:35:12;;;;;;;22.40;20.08;;;;;;;;;;4975353;28;20577;-81
2023/05/23 06:37:39;;;;;;;22.60;20.27;;;;;;;;;;4977666;28;20229;-78
2023/05/23 06:40:05;;;;;;;22.52;20.40;;;;;;;;;;4973924;28;20252;-80
2023/05/23 06:42:30;;;;;;;22.38;20.20;;;;;;;;;;4982595;28;20603;-80
2023/05/23 06:45:10;;;;;;;22.00;20.02;;;;;;;;;;4970263;28;20220;-78
2023/05/23 06:47:36;;;;;;;22.85;20.75;;;;;;;;;;4958303;28;20236;-80
2023/05/23 06:50:02;;;;;;;21.35;19.33;;;;;;;;;;4956303;28;20259;-80
2023/05/23 06:52:28;;;;;;;22.13;20.13;;;;;;;;;;4951645;28;20708;-80
2023/05/23 06:54:55;;;;;;;23.17;20.95;;;;;;;;;;4962887;28;20214;-79
2023/05/23 06:57:35;;;;;;;21.60;19.70;;;;;;;;;;4972427;28;20773;-79
2023/05/23 07:00:01;;;;;;;22.42;20.17;;;;;;;;;;4973382;28;20296;-79
2023/05/23 07:02:27;;;;;;;22.75;20.75;;;;;;;;;;4954428;28;20224;-77
2023/05/23 07:04:53;;;;;;;22.15;19.83;;;;;;;;;;4957192;28;20226;-80
2023/05/23 07:07:38;;;;;;;22.52;20.58;;;;;;;;;;4958444;28;20279;-79
2023/05/23 07:10:05;;;;;;;22.77;20.63;;;;;;;;;;4970296;28;20261;-79
2023/05/23 07:12:31;;;;;;;21.40;19.55;;;;;;;;;;4949241;28;20324;-77
2023/05/23 07:14:56;;;;;;;20.65;18.95;;;;;;;;;;4945059;28;20644;-77
2023/05/23 07:17:24;;;;;;;19.67;17.92;;;;;;;;;;4975213;28;20229;-80
2023/05/23 07:20:12;;;;;;;18.77;17.20;;;;;;;;;;4960659;28;20206;-77
2023/05/23 07:22:39;;;;;;;18.08;16.58;;;;;;;;;;4958140;28;20229;-78
2023/05/23 07:25:10;;;;;;;17.85;16.45;;;;;;;;;;4964917;28;20209;-77
2023/05/23 07:27:55;;;;;;;18.02;16.52;;;;;;;;;;4969559;28;20217;-79
2023/05/23 07:30:23;;;;;;;18.33;16.73;;;;;;;;;;4974706;28;20680;-80
2023/05/23 07:32:48;;;;;;;19.92;18.23;;;;;;;;;;4975458;28;20236;-79
2023/05/23 07:35:15;;;;;;;20.13;18.42;;;;;;;;;;4966577;28;20225;-79
2023/05/23 07:37:42;;;;;;;22.20;20.33;;;;;;;;;;4974368;28;20220;-78
2023/05/23 07:40:08;;;;;;;23.08;21.17;;;;;;;;;;4940432;28;20218;-81
2023/05/23 07:42:43;;;;;;;23.23;21.02;;;;;;;;;;4968788;28;20217;-79
2023/05/23 07:45:09;;;;;;;24.27;22.17;;;;;;;;;;4955988;28;20253;-82
2023/05/23 07:47:40;;;;;;;25.70;23.60;;;;;;;;;;4960535;28;20871;-79
2023/05/23 07:50:08;;;;;;;25.15;23.05;;;;;;;;;;4974570;28;20214;-79
2023/05/23 07:55:08;;;;;;;23.20;21.20;;;;;;;;;;4967192;28;20225;-74
2023/05/23 07:57:33;;;;;;;23.95;21.77;;;;;;;;;;4993575;28;20686;-76
2023/05/23 07:59:59;;;;;;;23.33;21.42;;;;;;;;;;4976816;28;20223;-73
2023/05/23 08:02:27;;;;;;;24.60;22.40;;;;;;;;;;4978708;28;20733;-73
2023/05/23 08:04:55;;;;;;;23.85;21.50;;;;;;;;;;4933643;28;20217;-73
2023/05/23 08:07:21;;;;;;;22.73;20.42;;;;;;;;;;4987630;28;20220;-73
2023/05/23 08:09:56;;;;;;;22.10;19.73;;;;;;;;;;4961903;28;20276;-72
2023/05/23 08:12:22;;;;;;;20.70;18.83;;;;;;;;;;4980484;28;20655;-73
2023/05/23 08:14:56;;;;;;;20.77;18.55;;;;;;;;;;4943309;28;20223;-73
2023/05/23 08:17:27;;;;;;;19.58;17.52;;;;;;;;;;4975781;28;20217;-73
2023/05/23 08:19:53;;;;;;;18.80;16.95;;;;;;;;;;4978362;28;20232;-73
2023/05/23 08:22:21;;;;;;;18.48;16.58;;;;;;;;;;4974391;28;20217;-76
2023/05/23 08:24:46;;;;;;;18.30;16.50;;;;;;;;;;4981792;28;20245;-73
2023/05/23 08:27:12;;;;;;;17.85;16.00;;;;;;;;;;4984509;28;20226;-74
2023/05/23 08:29:43;;;;;;;16.85;15.20;;;;;;;;;;4979317;28;20225;-73
2023/05/23 08:32:12;;;;;;;16.33;14.80;;;;;;;;;;4960224;28;20253;-74
2023/05/23 08:34:41;;;;;;;14.48;13.15;;;;;;;;;;4947114;28;20223;-72
2023/05/23 08:37:07;;;;;;;15.23;13.27;;;;;;;;;;4964863;28;20232;-74
2023/05/23 08:39:32;;;;;;;13.40;11.85;;;;;;;;;;4967501;28;20221;-74
2023/05/23 08:42:24;;;;;;;13.90;11.15;;;;;;;;;;4998879;28;20253;-74
2023/05/23 08:44:50;;;;;;;11.98;10.77;;;;;;;;;;4960006;28;20213;-73
2023/05/23 08:47:19;;;;;;;11.52;10.48;;;;;;;;;;4993727;28;20212;-74
2023/05/23 08:49:54;;;;;;;11.88;10.70;;;;;;;;;;4969480;28;20282;-74
2023/05/23 08:52:23;;;;;;;10.75;8.93;;;;;;;;;;4966017;28;20283;-74
2023/05/23 08:54:53;;;;;;;10.80;8.40;;;;;;;;;;4967796;28;20313;-75
2023/05/23 08:57:23;;;;;;;11.13;9.68;;;;;;;;;;4964102;28;20225;-76
2023/05/23 08:59:54;;;;;;;11.40;9.15;;;;;;;;;;4981579;28;20218;-75
2023/05/23 09:02:21;;;;;;;9.87;8.80;;;;;;;;;;4995508;28;20221;-75
2023/05/23 09:04:48;;;;;;;11.25;9.52;;;;;;;;;;4967102;28;20777;-75
2023/05/23 09:07:23;;;;;;;11.07;8.40;;;;;;;;;;4953138;28;20228;-75
2023/05/23 09:09:50;;;;;;;8.10;7.25;;;;;;;;;;4981388;28;20246;-75
2023/05/23 09:12:16;;;;;;;9.57;7.27;;;;;;;;;;4979626;28;20214;-75
2023/05/23 09:14:47;;;;;;;8.87;7.97;;;;;;;;;;4966494;28;20702;-74
2023/05/23 09:17:21;;;;;;;10.97;7.47;;;;;;;;;;4975662;28;20217;-75
2023/05/23 09:19:47;;;;;;;8.03;7.23;;;;;;;;;;4984310;28;20302;-74
2023/05/23 09:22:26;;;;;;;9.90;7.80;;;;;;;;;;4972771;28;20226;-74
2023/05/23 09:25:13;;;;;;;9.45;7.63;;;;;;;;;;4980268;28;20209;-75
2023/05/23 09:27:43;;;;;;;8.50;7.22;;;;;;;;;;4968808;28;20257;-73
2023/05/23 09:30:14;;;;;;;7.93;7.18;;;;;;;;;;4965422;28;20224;-74
2023/05/23 09:32:43;;;;;;;8.93;7.10;;;;;;;;;;4979010;28;20241;-73
2023/05/23 09:35:12;;;;;;;9.17;6.67;;;;;;;;;;4960835;28;20263;-75
2023/05/23 09:37:42;;;;;;;8.47;5.87;;;;;;;;;;5009008;28;20230;-74
2023/05/23 09:40:11;;;;;;;7.13;6.00;;;;;;;;;;4959659;28;20606;-74
2023/05/23 09:42:45;;;;;;;8.43;5.57;;;;;;;;;;4989679;28;20217;-74
2023/05/23 09:45:11;;;;;;;7.00;5.20;;;;;;;;;;4984539;28;20222;-74
2023/05/23 09:47:37;;;;;;;5.40;4.80;;;;;;;;;;4948614;28;20217;-75
2023/05/23 09:50:07;;;;;;;5.47;4.97;;;;;;;;;;4977623;28;20624;-75
2023/05/23 09:52:41;;;;;;;6.57;5.60;;;;;;;;;;4998504;28;20221;-74
2023/05/23 09:55:12;;;;;;;10.00;5.17;;;;;;;;;;4957852;28;20213;-74
2023/05/23 09:57:42;;;;;;;5.37;4.63;;;;;;;;;;4995718;28;20219;-74
2023/05/23 10:00:12;;;;;;;7.20;4.60;;;;;;;;;;4993921;28;20234;-74
2023/05/23 10:02:54;;;;;;;9.17;4.87;;;;;;;;;;4978634;28;20220;-74
2023/05/23 10:05:54;;;;;;;5.63;4.33;;;;;;;;;;4984570;28;20259;-74
2023/05/23 10:08:47;;;;;;;7.57;4.27;;;;;;;;;;4950372;28;20227;-74
2023/05/23 10:11:15;;;;;;;6.77;4.63;;;;;;;;;;4976328;28;20223;-74
2023/05/23 10:13:52;;;;;;;7.10;4.33;;;;;;;;;;5009091;28;20213;-74
2023/05/23 10:16:30;;;;;;;8.27;4.30;;;;;;;;;;4946001;28;20710;-74
2023/05/23 10:19:00;;;;;;;5.37;3.83;;;;;;;;;;4974888;28;21327;-74
2023/05/23 10:21:30;;;;;;;6.03;3.47;;;;;;;;;;4967340;28;20276;-74
2023/05/23 10:24:01;;;;;;;5.22;3.30;;;;;;;;;;4977259;28;20236;-73
2023/05/23 10:26:28;;;;;;;5.90;3.57;;;;;;;;;;4991962;28;20233;-74
2023/05/23 10:29:01;;;;;;;7.13;4.13;;;;;;;;;;4945726;28;20220;-73
2023/05/23 10:31:26;;;;;;;6.37;3.53;;;;;;;;;;4988119;28;20239;-75
2023/05/23 10:33:55;;;;;;;6.10;3.27;;;;;;;;;;4965566;28;20215;-74
2023/05/23 10:37:01;;;;;;;12.87;9.83;;;;;;;;;;4979098;28;20235;-74
2023/05/23 10:39:43;;;;;;;5.67;3.83;;;;;;;;;;4985952;28;20255;-73
2023/05/23 10:42:12;;;;;;;5.90;3.53;;;;;;;;;;4981185;28;20223;-73
2023/05/23 10:44:40;;;;;;;6.73;3.20;;;;;;;;;;4976148;28;20236;-75
2023/05/23 10:47:11;;;;;;;5.13;3.23;;;;;;;;;;4995423;28;20230;-74
2023/05/23 10:49:40;;;;;;;6.77;3.30;;;;;;;;;;4974623;28;20283;-74
2023/05/23 10:52:06;;;;;;;6.23;3.53;;;;;;;;;;5002763;28;20217;-75
2023/05/23 10:54:37;;;;;;;6.00;3.67;;;;;;;;;;4990802;28;20225;-74
2023/05/23 10:57:03;;;;;;;8.33;3.80;;;;;;;;;;4993876;28;20271;-74
2023/05/23 10:59:31;;;;;;;6.90;3.57;;;;;;;;;;4980162;28;20224;-73
2023/05/23 11:01:59;;;;;;;5.57;3.73;;;;;;;;;;4992557;28;20221;-75
2023/05/23 11:04:26;;;;;;;9.20;3.30;;;;;;;;;;4989510;28;20232;-74
2023/05/23 11:06:55;;;;;;;5.67;3.33;;;;;;;;;;4971660;28;20220;-73
2023/05/23 11:09:23;;;;;;;5.07;3.47;;;;;;;;;;4995822;28;20221;-74
2023/05/23 11:11:58;;;;;;;7.73;3.57;;;;;;;;;;4964090;28;20229;-74
2023/05/23 11:14:32;;;;;;;8.13;3.80;;;;;;;;;;4993459;28;20229;-75
2023/05/23 11:16:58;;;;;;;7.87;3.53;;;;;;;;;;5004301;28;20606;-73
2023/05/23 11:19:28;;;;;;;11.07;3.70;;;;;;;;;;4991125;28;20221;-73
2023/05/23 11:22:00;;;;;;;7.38;3.70;;;;;;;;;;4990256;28;20300;-74
2023/05/23 11:24:54;;;;;;;7.57;3.70;;;;;;;;;;4950708;28;20299;-74
2023/05/23 11:27:28;;;;;;;6.33;3.30;;;;;;;;;;5003193;28;20351;-73
2023/05/23 11:29:57;;;;;;;5.13;3.30;;;;;;;;;;4973589;28;20225;-74
2023/05/23 11:32:22;;;;;;;6.35;3.10;;;;;;;;;;4984606;28;20240;-73
2023/05/23 11:34:50;;;;;;;5.07;3.10;;;;;;;;;;4968732;28;20228;-75
2023/05/23 11:37:22;;;;;;;5.45;3.05;;;;;;;;;;4965512;28;20237;-74
2023/05/23 11:39:50;;;;;;;8.02;3.10;;;;;;;;;;4982110;28;20224;-75
2023/05/23 11:42:18;;;;;;;4.80;2.90;;;;;;;;;;4984498;28;20248;-73
2023/05/23 11:44:51;;;;;;;5.38;2.80;;;;;;;;;;5009202;28;20217;-74
2023/05/23 11:47:22;;;;;;;5.95;2.70;;;;;;;;;;4956578;28;20573;-74
2023/05/23 11:49:48;;;;;;;5.00;2.80;;;;;;;;;;4969130;28;20278;-73
2023/05/23 11:52:13;;;;;;;4.47;2.55;;;;;;;;;;4999597;28;20308;-75
2023/05/23 11:54:40;;;;;;;7.30;2.80;;;;;;;;;;4994815;28;20697;-75
2023/05/23 11:57:09;;;;;;;4.97;2.30;;;;;;;;;;4999232;28;20783;-73
2023/05/23 11:59:34;;;;;;;4.75;2.63;;;;;;;;;;4976006;28;20283;-75
2023/05/23 12:02:01;;;;;;;5.35;2.88;;;;;;;;;;4975518;28;21022;-75
2023/05/23 12:04:30;;;;;;;7.50;2.40;;;;;;;;;;4988637;28;20251;-77
2023/05/23 12:06:58;;;;;;;6.80;2.63;;;;;;;;;;4974417;28;20233;-74
2023/05/23 12:09:28;;;;;;;5.18;2.58;;;;;;;;;;4995557;28;20221;-74
2023/05/23 12:11:58;;;;;;;6.97;2.38;;;;;;;;;;4986079;28;20329;-74
2023/05/23 12:14:26;;;;;;;5.97;2.90;;;;;;;;;;4973137;28;20228;-74
2023/05/23 12:16:52;;;;;;;5.40;2.90;;;;;;;;;;4969432;28;20247;-74
2023/05/23 12:19:20;;;;;;;7.03;2.63;;;;;;;;;;4961136;28;20213;-74
2023/05/23 12:21:47;;;;;;;5.97;2.90;;;;;;;;;;4960853;28;20227;-74
2023/05/23 12:24:16;;;;;;;8.13;2.80;;;;;;;;;;4986483;28;20227;-74
2023/05/23 12:27:04;;;;;;;4.43;2.78;;;;;;;;;;5004897;28;20256;-75
2023/05/23 12:29:31;;;;;;;7.95;2.70;;;;;;;;;;4968075;28;20252;-74
2023/05/23 12:32:00;;;;;;;6.07;3.00;;;;;;;;;;5015917;28;20240;-73
2023/05/23 12:34:28;;;;;;;5.68;2.80;;;;;;;;;;4973917;28;20224;-74
2023/05/23 12:36:58;;;;;;;7.13;3.30;;;;;;;;;;4980604;28;20332;-73
2023/05/23 12:39:26;;;;;;;6.63;3.00;;;;;;;;;;4998525;28;20224;-73
2023/05/23 12:41:57;;;;;;;7.38;3.33;;;;;;;;;;4981673;28;20216;-74
2023/05/23 12:44:23;;;;;;;9.07;3.30;;;;;;;;;;4976978;28;20806;-74
2023/05/23 12:46:51;;;;;;;4.78;2.92;;;;;;;;;;5006245;28;20304;-74
2023/05/23 12:49:18;;;;;;;5.80;3.00;;;;;;;;;;4983344;28;20229;-74
2023/05/23 12:51:44;;;;;;;7.00;3.70;;;;;;;;;;4957346;28;20302;-74
2023/05/23 12:54:10;;;;;;;9.20;3.58;;;;;;;;;;4980000;28;20228;-73
2023/05/23 12:56:38;;;;;;;9.15;3.40;;;;;;;;;;4988942;28;20236;-74
2023/05/23 12:59:08;;;;;;;9.90;3.72;;;;;;;;;;4980312;28;20231;-74
2023/05/23 13:01:33;;;;;;;5.85;3.03;;;;;;;;;;4987878;28;20549;-75
2023/05/23 13:04:00;;;;;;;6.28;2.95;;;;;;;;;;4967469;28;20703;-76
2023/05/23 13:06:28;;;;;;;9.43;3.40;;;;;;;;;;4979093;28;20217;-75
2023/05/23 13:08:58;;;;;;;6.93;3.00;;;;;;;;;;4981216;28;20221;-75
2023/05/23 13:11:30;;;;;;;6.72;3.00;;;;;;;;;;4996073;28;20220;-75
2023/05/23 13:13:55;;;;;;;8.20;3.47;;;;;;;;;;5007750;28;20216;-75
2023/05/23 13:16:21;;;;;;;8.40;3.08;;;;;;;;;;4981083;28;20234;-74
2023/05/23 13:18:46;;;;;;;6.97;2.90;;;;;;;;;;4962323;28;20223;-74
2023/05/23 13:21:12;;;;;;;6.22;3.10;;;;;;;;;;4977666;28;20221;-76
2023/05/23 13:23:37;;;;;;;6.70;2.72;;;;;;;;;;4983675;28;20212;-74
2023/05/23 13:26:05;;;;;;;5.75;3.40;;;;;;;;;;5006748;28;20236;-75
2023/05/23 13:28:32;;;;;;;7.82;3.28;;;;;;;;;;5003870;28;20224;-73
2023/05/23 13:30:57;;;;;;;6.07;2.90;;;;;;;;;;4994830;28;20232;-74
2023/05/23 13:33:23;;;;;;;6.05;2.95;;;;;;;;;;4979438;28;20726;-74
2023/05/23 13:35:49;;;;;;;5.30;2.95;;;;;;;;;;4986335;28;20219;-73
2023/05/23 13:38:17;;;;;;;5.15;2.78;;;;;;;;;;4972129;28;20217;-74
2023/05/23 13:40:46;;;;;;;6.13;3.15;;;;;;;;;;4976945;28;20306;-74
2023/05/23 13:43:11;;;;;;;8.15;3.13;;;;;;;;;;4991328;28;20253;-74
2023/05/23 13:45:37;;;;;;;15.75;5.32;;;;;;;;;;5006478;28;20262;-75
2023/05/23 13:48:06;;;;;;;14.27;5.45;;;;;;;;;;5012943;28;20229;-74
2023/05/23 13:50:31;;;;;;;10.63;5.43;;;;;;;;;;4989049;28;20230;-74
2023/05/23 13:52:59;;;;;;;7.78;3.90;;;;;;;;;;4996766;28;20255;-74
2023/05/23 13:55:32;;;;;;;6.30;2.95;;;;;;;;;;5006870;28;20208;-74
2023/05/23 13:58:02;;;;;;;8.50;3.30;;;;;;;;;;4977582;28;20241;-74
2023/05/23 14:00:32;;;;;;;8.05;3.67;;;;;;;;;;4970803;28;20611;-74
2023/05/23 14:03:03;;;;;;;5.38;3.10;;;;;;;;;;4973977;28;20323;-74
2023/05/23 14:05:33;;;;;;;8.00;3.85;;;;;;;;;;4993755;28;20221;-74
2023/05/23 14:07:59;;;;;;;7.03;3.17;;;;;;;;;;4995762;28;20227;-74
2023/05/23 14:10:29;;;;;;;6.00;3.40;;;;;;;;;;4999172;28;20223;-74
2023/05/23 14:12:54;;;;;;;5.17;2.83;;;;;;;;;;4997447;28;20245;-74
2023/05/23 14:15:25;;;;;;;7.82;3.22;;;;;;;;;;4985286;28;20229;-74
2023/05/23 14:17:54;;;;;;;6.47;3.30;;;;;;;;;;4975414;28;20225;-74
2023/05/23 14:20:22;;;;;;;5.53;2.90;;;;;;;;;;5006002;28;20682;-74
2023/05/23 14:22:48;;;;;;;4.80;2.45;;;;;;;;;;4976840;28;20275;-73
2023/05/23 14:25:15;;;;;;;5.43;2.42;;;;;;;;;;4987825;28;20233;-74
2023/05/23 14:27:41;;;;;;;3.42;2.05;;;;;;;;;;4974741;28;20224;-73
2023/05/23 14:30:09;;;;;;;7.55;2.72;;;;;;;;;;4979750;28;20235;-73
2023/05/23 14:32:37;;;;;;;5.38;2.20;;;;;;;;;;4950670;28;20240;-75
2023/05/23 14:35:07;;;;;;;4.57;2.33;;;;;;;;;;4997136;28;20414;-75
2023/05/23 14:37:34;;;;;;;8.85;2.28;;;;;;;;;;4985909;28;20239;-73
2023/05/23 14:39:59;;;;;;;8.02;2.80;;;;;;;;;;4998785;28;20592;-72